createdAt,value
2018-09-22T00:02:14.303Z,10.11
2018-09-22T00:04:42.865Z,10.04
2018-09-22T00:07:11.398Z,9.98
2018-09-22T00:09:39.971Z,9.96
2018-09-22T00:12:08.510Z,9.93
2018-09-22T00:14:37.101Z,9.92
2018-09-22T00:17:05.706Z,9.93
2018-09-22T00:19:34.306Z,9.91
2018-09-22T00:22:03.032Z,9.87
2018-09-22T00:24:31.599Z,9.88
2018-09-22T00:27:00.454Z,9.90
2018-09-22T00:29:28.942Z,9.89
2018-09-22T00:31:57.466Z,9.82
2018-09-22T00:34:26.398Z,9.73
2018-09-22T00:36:54.929Z,9.66
2018-09-22T00:39:23.474Z,9.75
2018-09-22T00:41:52.046Z,9.73
2018-09-22T00:44:21.035Z,9.71
2018-09-22T00:46:49.565Z,9.72
2018-09-22T00:49:18.957Z,9.80
2018-09-22T00:51:47.528Z,9.72
2018-09-22T00:54:16.050Z,9.77
2018-09-22T00:56:44.650Z,9.83
2018-09-22T00:59:13.246Z,9.73
2018-09-22T01:01:41.798Z,9.68
2018-09-22T01:04:10.322Z,9.63
2018-09-22T01:06:38.881Z,9.66
2018-09-22T01:09:08.687Z,9.63
2018-09-22T01:11:37.573Z,9.59
2018-09-22T01:14:06.243Z,9.57
2018-09-22T01:16:34.822Z,9.47
2018-09-22T01:19:03.409Z,9.55
2018-09-22T01:21:32.014Z,9.55
2018-09-22T01:24:00.870Z,9.55
2018-09-22T01:26:29.409Z,9.59
2018-09-22T01:28:57.942Z,9.58
2018-09-22T01:31:26.513Z,9.58
2018-09-22T01:33:55.069Z,9.54
2018-09-22T01:36:23.628Z,9.58
2018-09-22T01:38:52.199Z,9.61
2018-09-22T01:41:20.789Z,9.58
2018-09-22T01:43:49.318Z,9.57
2018-09-22T01:46:17.869Z,9.59
2018-09-22T01:48:46.402Z,9.57
2018-09-22T01:51:14.951Z,9.58
2018-09-22T01:53:43.481Z,9.51
2018-09-22T01:56:12.033Z,9.49
2018-09-22T01:58:40.553Z,9.55
2018-09-22T02:01:09.116Z,9.50
2018-09-22T02:03:37.649Z,9.54
2018-09-22T02:06:06.585Z,9.57
2018-09-22T02:08:35.102Z,9.56
2018-09-22T02:11:03.674Z,9.45
2018-09-22T02:13:32.190Z,9.45
2018-09-22T02:16:00.774Z,9.44
2018-09-22T02:18:29.355Z,9.51
2018-09-22T02:20:58.127Z,9.46
2018-09-22T02:23:26.734Z,9.49
2018-09-22T02:25:55.333Z,9.53
2018-09-22T02:28:23.871Z,9.65
2018-09-22T02:30:52.498Z,9.57
2018-09-22T02:33:21.054Z,9.44
2018-09-22T02:35:49.633Z,9.49
2018-09-22T02:38:18.201Z,9.37
2018-09-22T02:40:46.790Z,9.47
2018-09-22T02:43:15.329Z,9.47
2018-09-22T02:45:43.922Z,9.51
2018-09-22T02:48:12.465Z,9.48
2018-09-22T02:50:41.133Z,9.42
2018-09-22T02:53:09.797Z,9.39
2018-09-22T02:55:38.369Z,9.44
2018-09-22T02:58:07.010Z,9.43
2018-09-22T03:00:35.666Z,9.36
2018-09-22T03:03:04.207Z,9.39
2018-09-22T03:05:32.833Z,9.36
2018-09-22T03:08:01.398Z,9.38
2018-09-22T03:10:29.993Z,9.41
2018-09-22T03:12:58.544Z,9.32
2018-09-22T03:15:27.170Z,9.29
2018-09-22T03:17:55.706Z,9.31
2018-09-22T03:20:24.296Z,9.26
2018-09-22T03:22:52.841Z,9.31
2018-09-22T03:25:21.415Z,9.19
2018-09-22T03:27:49.977Z,9.17
2018-09-22T03:30:18.578Z,9.06
2018-09-22T03:32:47.138Z,9.07
2018-09-22T03:35:15.986Z,8.98
2018-09-22T03:37:44.538Z,8.87
2018-09-22T03:40:13.126Z,8.93
2018-09-22T03:42:41.679Z,8.94
2018-09-22T03:45:10.449Z,8.88
2018-09-22T03:47:39.098Z,8.98
2018-09-22T03:50:07.694Z,9.01
2018-09-22T03:52:36.251Z,8.87
2018-09-22T03:55:04.854Z,8.83
2018-09-22T03:57:33.435Z,8.88
2018-09-22T04:00:01.975Z,8.84
2018-09-22T04:02:30.644Z,8.89
2018-09-22T04:04:59.220Z,8.86
2018-09-22T04:07:27.758Z,8.89
2018-09-22T04:09:56.309Z,8.92
2018-09-22T04:12:24.904Z,9.01
2018-09-22T04:14:53.473Z,9.01
2018-09-22T04:17:22.046Z,9.01
2018-09-22T04:19:50.621Z,8.98
2018-09-22T04:22:19.299Z,9.03
2018-09-22T04:24:47.850Z,8.99
2018-09-22T04:27:16.430Z,8.96
2018-09-22T04:29:45.010Z,8.89
2018-09-22T04:32:13.599Z,8.94
2018-09-22T04:34:42.150Z,9.00
2018-09-22T04:37:10.729Z,8.98
2018-09-22T04:39:39.306Z,9.06
2018-09-22T04:42:07.928Z,9.04
2018-09-22T04:44:36.465Z,9.05
2018-09-22T04:47:05.041Z,9.09
2018-09-22T04:49:33.609Z,9.03
2018-09-22T04:52:02.182Z,9.02
2018-09-22T04:54:30.744Z,9.07
2018-09-22T04:56:59.322Z,9.02
2018-09-22T04:59:27.850Z,9.02
2018-09-22T05:01:56.419Z,9.02
2018-09-22T05:04:24.986Z,8.99
2018-09-22T05:06:53.562Z,9.00
2018-09-22T05:09:22.107Z,9.04
2018-09-22T05:11:50.738Z,8.98
2018-09-22T05:14:19.309Z,9.02
2018-09-22T05:16:47.915Z,9.03
2018-09-22T05:19:16.467Z,8.94
2018-09-22T05:21:45.017Z,8.87
2018-09-22T05:24:13.559Z,8.88
2018-09-22T05:26:42.179Z,8.93
2018-09-22T05:29:10.802Z,8.85
2018-09-22T05:31:39.375Z,8.96
2018-09-22T05:34:08.070Z,8.92
2018-09-22T05:36:36.657Z,9.00
2018-09-22T05:39:08.101Z,9.06
2018-09-22T05:41:36.715Z,9.12
2018-09-22T05:44:05.265Z,9.15
2018-09-22T05:46:33.974Z,9.22
2018-09-22T05:49:02.693Z,9.36
2018-09-22T05:51:31.443Z,9.30
2018-09-22T05:54:00.101Z,9.41
2018-09-22T05:56:28.673Z,9.45
2018-09-22T05:58:57.227Z,9.43
2018-09-22T06:01:25.847Z,9.48
2018-09-22T06:03:54.649Z,9.57
2018-09-22T06:06:23.074Z,9.63
2018-09-22T06:08:51.633Z,9.68
2018-09-22T06:11:20.198Z,9.93
2018-09-22T06:13:48.797Z,10.07
2018-09-22T06:16:17.373Z,9.93
2018-09-22T06:18:45.932Z,9.95
2018-09-22T06:21:14.511Z,9.94
2018-09-22T06:23:43.073Z,10.13
2018-09-22T06:26:11.666Z,10.21
2018-09-22T06:28:40.246Z,10.41
2018-09-22T06:31:08.846Z,10.47
2018-09-22T06:33:37.402Z,10.90
2018-09-22T06:36:06.358Z,10.77
2018-09-22T06:38:34.916Z,10.88
2018-09-22T06:41:03.498Z,10.70
2018-09-22T06:43:32.210Z,10.68
2018-09-22T06:46:00.787Z,10.93
2018-09-22T06:48:29.338Z,11.08
2018-09-22T06:50:57.920Z,11.22
2018-09-22T06:53:26.518Z,11.21
2018-09-22T06:55:55.118Z,11.26
2018-09-22T06:58:23.685Z,11.13
2018-09-22T07:00:55.915Z,11.32
2018-09-22T07:03:24.466Z,11.33
2018-09-22T07:05:53.049Z,11.74
2018-09-22T07:08:21.670Z,12.08
2018-09-22T07:10:50.278Z,11.96
2018-09-22T07:13:18.838Z,11.72
2018-09-22T07:15:47.406Z,11.24
2018-09-22T07:18:15.990Z,11.55
2018-09-22T07:20:49.710Z,11.62
2018-09-22T07:23:19.187Z,11.94
2018-09-22T07:25:47.778Z,12.12
2018-09-22T07:28:16.332Z,12.55
2018-09-22T07:30:44.970Z,13.00
2018-09-22T07:33:13.549Z,12.82
2018-09-22T07:35:42.103Z,12.23
2018-09-22T07:38:10.706Z,13.29
2018-09-22T07:40:39.294Z,13.75
2018-09-22T07:43:08.010Z,13.95
2018-09-22T07:45:36.646Z,14.26
2018-09-22T07:48:05.781Z,15.03
2018-09-22T07:50:34.354Z,15.50
2018-09-22T07:53:02.969Z,15.40
2018-09-22T07:55:31.539Z,14.86
2018-09-22T07:58:00.182Z,14.51
2018-09-22T08:00:28.908Z,15.42
2018-09-22T08:02:57.593Z,15.28
2018-09-22T08:05:26.149Z,15.27
2018-09-22T08:07:54.738Z,15.15
2018-09-22T08:10:23.289Z,13.69
2018-09-22T08:12:51.877Z,14.59
2018-09-22T08:15:20.447Z,15.06
2018-09-22T08:17:49.098Z,15.06
2018-09-22T08:20:17.666Z,15.99
2018-09-22T08:22:46.263Z,15.52
2018-09-22T08:25:14.828Z,15.33
2018-09-22T08:27:43.404Z,16.61
2018-09-22T08:30:11.966Z,17.17
2018-09-22T08:32:40.531Z,16.99
2018-09-22T08:35:09.109Z,18.09
2018-09-22T08:37:37.770Z,19.90
2018-09-22T08:40:06.369Z,19.37
2018-09-22T08:42:34.939Z,20.16
2018-09-22T08:45:04.050Z,18.60
2018-09-22T08:47:32.720Z,18.38
2018-09-22T08:50:01.321Z,17.18
2018-09-22T08:52:29.869Z,15.22
2018-09-22T08:54:58.447Z,14.20
2018-09-22T08:57:29.982Z,15.30
2018-09-22T08:59:58.862Z,16.94
2018-09-22T09:02:47.968Z,17.21
2018-09-22T09:05:22.576Z,18.43
2018-09-22T09:07:51.248Z,19.09
2018-09-22T09:10:19.819Z,20.31
2018-09-22T09:12:48.591Z,16.60
2018-09-22T09:15:17.211Z,16.98
2018-09-22T09:17:45.777Z,18.18
2018-09-22T09:20:14.434Z,22.28
2018-09-22T09:22:42.999Z,22.23
2018-09-22T09:25:11.593Z,22.29
2018-09-22T09:27:40.228Z,23.12
2018-09-22T09:30:08.775Z,24.34
2018-09-22T09:32:37.310Z,23.71
2018-09-22T09:35:05.960Z,22.31
2018-09-22T09:37:34.659Z,22.55
2018-09-22T09:40:03.252Z,24.12
2018-09-22T09:42:32.295Z,23.97
2018-09-22T09:45:01.115Z,24.33
2018-09-22T09:47:29.658Z,22.94
2018-09-22T09:49:59.057Z,22.73
2018-09-22T09:52:27.630Z,20.82
2018-09-22T09:54:56.297Z,22.22
2018-09-22T09:57:24.819Z,17.93
2018-09-22T09:59:53.418Z,20.72
2018-09-22T10:02:21.990Z,20.15
2018-09-22T10:04:50.601Z,19.53
2018-09-22T10:07:19.194Z,17.93
2018-09-22T10:09:47.787Z,18.30
2018-09-22T10:12:16.334Z,18.30
2018-09-22T10:14:44.914Z,18.84
2018-09-22T10:17:13.758Z,18.66
2018-09-22T10:19:42.363Z,18.11
2018-09-22T10:22:10.922Z,19.63
2018-09-22T10:24:39.628Z,21.03
2018-09-22T10:27:08.194Z,20.72
2018-09-22T10:29:36.778Z,20.88
2018-09-22T10:32:05.354Z,21.03
2018-09-22T10:34:34.343Z,20.55
2018-09-22T10:37:02.930Z,20.50
2018-09-22T10:39:31.518Z,21.33
2018-09-22T10:42:00.077Z,20.95
2018-09-22T10:44:28.662Z,21.21
2018-09-22T10:46:57.254Z,21.38
2018-09-22T10:49:26.098Z,22.01
2018-09-22T10:51:54.706Z,22.03
2018-09-22T10:54:23.310Z,22.07
2018-09-22T10:56:52.883Z,21.95
2018-09-22T10:59:22.386Z,21.22
2018-09-22T11:01:50.945Z,20.52
2018-09-22T11:04:24.770Z,20.84
2018-09-22T11:07:05.870Z,22.42
2018-09-22T11:09:43.551Z,24.87
2018-09-22T11:12:20.859Z,24.40
2018-09-22T11:14:49.826Z,24.75
2018-09-22T11:17:20.203Z,25.86
2018-09-22T11:20:06.376Z,27.08
2018-09-22T11:22:39.078Z,21.66
2018-09-22T11:25:14.474Z,20.96
2018-09-22T11:27:53.191Z,20.81
2018-09-22T11:30:27.254Z,20.20
2018-09-22T11:33:05.908Z,18.74
2018-09-22T11:35:41.011Z,19.70
2018-09-22T11:38:20.909Z,19.59
2018-09-22T11:41:04.606Z,19.86
2018-09-22T11:43:45.698Z,18.91
2018-09-22T11:46:19.294Z,18.91
2018-09-22T11:48:59.574Z,18.92
2018-09-22T11:51:44.811Z,18.72
2018-09-22T11:54:21.076Z,18.69
2018-09-22T11:56:53.791Z,18.26
2018-09-22T11:59:22.434Z,18.22
2018-09-22T12:01:54.871Z,18.14
2018-09-22T12:04:24.066Z,18.26
2018-09-22T12:07:02.866Z,18.77
2018-09-22T12:09:40.799Z,18.34
2018-09-22T12:12:09.475Z,18.68
2018-09-22T12:14:38.481Z,18.51
2018-09-22T12:17:07.030Z,18.21
2018-09-22T12:19:35.605Z,18.63
2018-09-22T12:22:04.186Z,18.68
2018-09-22T12:24:32.862Z,18.33
2018-09-22T12:27:01.461Z,19.38
2018-09-22T12:29:30.033Z,19.16
2018-09-22T12:31:58.720Z,18.72
2018-09-22T12:34:27.241Z,18.48
2018-09-22T12:36:55.790Z,18.24
2018-09-22T12:39:24.374Z,17.99
2018-09-22T12:41:52.986Z,18.22
2018-09-22T12:44:21.616Z,17.98
2018-09-22T12:46:50.438Z,17.82
2018-09-22T12:49:19.041Z,17.95
2018-09-22T12:51:47.602Z,18.17
2018-09-22T12:54:16.149Z,17.30
2018-09-22T12:56:44.729Z,18.12
2018-09-22T12:59:13.362Z,17.34
2018-09-22T13:01:42.003Z,17.49
2018-09-22T13:04:10.554Z,17.27
2018-09-22T13:06:39.121Z,17.57
2018-09-22T13:09:09.354Z,17.47
2018-09-22T13:11:37.952Z,17.36
2018-09-22T13:14:06.825Z,17.11
2018-09-22T13:16:35.920Z,17.15
2018-09-22T13:19:04.587Z,16.79
2018-09-22T13:21:33.253Z,16.52
2018-09-22T13:24:01.811Z,16.48
2018-09-22T13:26:30.390Z,16.23
2018-09-22T13:28:58.963Z,16.30
2018-09-22T13:31:27.574Z,16.33
2018-09-22T13:33:56.127Z,16.55
2018-09-22T13:36:24.697Z,16.61
2018-09-22T13:38:53.278Z,16.77
2018-09-22T13:41:21.883Z,17.00
2018-09-22T13:43:53.791Z,16.93
2018-09-22T13:46:26.199Z,16.43
2018-09-22T13:48:59.293Z,16.85
2018-09-22T13:51:27.982Z,16.85
2018-09-22T13:53:57.757Z,16.60
2018-09-22T13:56:26.343Z,16.94
2018-09-22T13:58:55.356Z,16.58
2018-09-22T14:01:23.930Z,16.73
2018-09-22T14:03:52.543Z,17.08
2018-09-22T14:06:21.169Z,17.06
2018-09-22T14:08:49.721Z,17.21
2018-09-22T14:11:18.309Z,17.22
2018-09-22T14:13:46.921Z,17.22
2018-09-22T14:16:15.682Z,16.90
2018-09-22T14:18:44.308Z,16.43
2018-09-22T14:21:13.227Z,16.75
2018-09-22T14:23:41.805Z,16.58
2018-09-22T14:26:10.378Z,16.41
2018-09-22T14:28:39.034Z,16.48
2018-09-22T14:31:07.628Z,16.65
2018-09-22T14:33:36.674Z,16.69
2018-09-22T14:36:06.578Z,16.59
2018-09-22T14:38:35.174Z,16.50
2018-09-22T14:41:03.766Z,16.32
2018-09-22T14:43:32.416Z,16.46
2018-09-22T14:46:00.962Z,16.06
2018-09-22T14:48:29.576Z,15.93
2018-09-22T14:50:58.150Z,15.58
2018-09-22T14:53:26.798Z,15.57
2018-09-22T14:55:55.438Z,15.54
2018-09-22T14:58:24.225Z,15.57
2018-09-22T15:00:54.574Z,15.56
2018-09-22T15:03:23.171Z,15.53
2018-09-22T15:05:51.838Z,15.62
2018-09-22T15:08:32.011Z,15.54
2018-09-22T15:11:03.621Z,15.47
2018-09-22T15:13:32.978Z,15.10
2018-09-22T15:16:03.633Z,14.69
2018-09-22T15:18:32.220Z,14.69
2018-09-22T15:21:00.773Z,14.30
2018-09-22T15:23:29.537Z,14.04
2018-09-22T15:25:58.294Z,13.65
2018-09-22T15:28:26.900Z,13.56
2018-09-22T15:30:55.450Z,13.54
2018-09-22T15:33:24.087Z,13.54
2018-09-22T15:35:52.686Z,13.75
2018-09-22T15:38:21.261Z,13.82
2018-09-22T15:40:49.816Z,14.23
2018-09-22T15:43:18.570Z,14.13
2018-09-22T15:45:47.117Z,14.18
2018-09-22T15:48:15.811Z,14.01
2018-09-22T15:50:44.376Z,14.01
2018-09-22T15:53:13.011Z,14.03
2018-09-22T15:55:41.598Z,14.21
2018-09-22T15:58:10.190Z,14.09
2018-09-22T16:00:38.802Z,13.87
2018-09-22T16:03:07.430Z,13.78
2018-09-22T16:05:36.011Z,13.92
2018-09-22T16:08:05.840Z,13.78
2018-09-22T16:10:34.416Z,13.75
2018-09-22T16:13:03.022Z,13.67
2018-09-22T16:15:31.577Z,13.84
2018-09-22T16:18:00.180Z,13.65
2018-09-22T16:20:28.726Z,13.61
2018-09-22T16:22:57.310Z,13.61
2018-09-22T16:25:25.847Z,13.63
2018-09-22T16:27:54.393Z,13.47
2018-09-22T16:30:22.943Z,13.45
2018-09-22T16:32:51.521Z,13.43
2018-09-22T16:35:20.159Z,13.41
2018-09-22T16:37:48.754Z,13.36
2018-09-22T16:40:17.318Z,13.59
2018-09-22T16:42:45.882Z,13.45
2018-09-22T16:45:14.493Z,13.28
2018-09-22T16:47:43.198Z,13.19
2018-09-22T16:50:11.848Z,13.16
2018-09-22T16:52:40.393Z,13.07
2018-09-22T16:55:09.037Z,12.99
2018-09-22T16:57:37.594Z,12.90
2018-09-22T17:00:06.198Z,12.86
2018-09-22T17:02:34.739Z,12.76
2018-09-22T17:05:03.309Z,12.81
2018-09-22T17:07:31.901Z,12.83
2018-09-22T17:10:00.514Z,12.69
2018-09-22T17:12:29.050Z,12.58
2018-09-22T17:14:57.622Z,12.52
2018-09-22T17:17:26.182Z,12.57
2018-09-22T17:19:54.902Z,12.48
2018-09-22T17:22:23.672Z,12.50
2018-09-22T17:24:52.557Z,12.56
2018-09-22T17:27:21.192Z,12.37
2018-09-22T17:29:49.794Z,12.12
2018-09-22T17:32:19.014Z,12.21
2018-09-22T17:34:47.583Z,12.03
2018-09-22T17:37:16.178Z,11.98
2018-09-22T17:39:45.141Z,11.99
2018-09-22T17:42:13.746Z,11.93
2018-09-22T17:44:42.782Z,11.75
2018-09-22T17:47:11.366Z,11.86
2018-09-22T17:49:39.938Z,11.94
2018-09-22T17:52:08.543Z,12.04
2018-09-22T17:54:37.103Z,11.91
2018-09-22T17:57:05.793Z,11.74
2018-09-22T17:59:34.456Z,11.71
2018-09-22T18:02:03.099Z,11.60
2018-09-22T18:04:31.710Z,11.69
2018-09-22T18:07:00.277Z,11.65
2018-09-22T18:09:28.867Z,11.58
2018-09-22T18:11:57.461Z,11.55
2018-09-22T18:14:26.565Z,11.58
2018-09-22T18:16:55.463Z,11.67
2018-09-22T18:19:24.822Z,11.67
2018-09-22T18:21:53.402Z,11.72
2018-09-22T18:24:21.966Z,11.66
2018-09-22T18:26:50.665Z,11.68
2018-09-22T18:29:19.295Z,11.52
2018-09-22T18:31:47.910Z,11.61
2018-09-22T18:34:16.513Z,11.66
2018-09-22T18:36:45.227Z,11.55
2018-09-22T18:39:13.771Z,11.50
2018-09-22T18:41:42.358Z,11.62
2018-09-22T18:44:10.902Z,11.57
2018-09-22T18:46:39.482Z,11.66
2018-09-22T18:49:08.094Z,11.57
2018-09-22T18:51:36.795Z,11.56
2018-09-22T18:54:05.466Z,11.54
2018-09-22T18:56:34.083Z,11.54
2018-09-22T18:59:02.658Z,11.58
2018-09-22T19:01:31.358Z,11.53
2018-09-22T19:03:59.961Z,11.50
2018-09-22T19:06:28.550Z,11.38
2018-09-22T19:08:57.408Z,11.35
2018-09-22T19:11:26.153Z,11.25
2018-09-22T19:13:58.663Z,11.24
2018-09-22T19:16:31.838Z,11.27
2018-09-22T19:19:07.820Z,11.42
2018-09-22T19:21:44.443Z,11.38
2018-09-22T19:24:19.854Z,11.30
2018-09-22T19:26:52.608Z,11.25
2018-09-22T19:29:26.859Z,11.29
2018-09-22T19:32:02.100Z,11.37
2018-09-22T19:34:34.049Z,11.31
2018-09-22T19:37:06.934Z,11.36
2018-09-22T19:39:40.806Z,11.31
2018-09-22T19:42:16.925Z,11.34
2018-09-22T19:44:49.040Z,11.41
2018-09-22T19:47:25.955Z,11.34
2018-09-22T19:50:20.683Z,11.33
2018-09-22T19:52:51.506Z,11.50
2018-09-22T19:55:20.266Z,11.46
2018-09-22T19:57:56.145Z,11.46
2018-09-22T20:00:36.851Z,11.43
2018-09-22T20:03:05.541Z,11.35
2018-09-22T20:05:50.984Z,11.31
2018-09-22T20:11:05.486Z,11.40
2018-09-22T20:13:36.478Z,11.39
2018-09-22T20:16:09.186Z,11.34
2018-09-22T20:18:41.463Z,11.26
2018-09-22T20:21:18.767Z,11.31
2018-09-22T20:26:38.290Z,11.28
2018-09-22T20:29:21.680Z,11.30
2018-09-22T20:32:04.760Z,11.42
2018-09-22T20:34:43.594Z,11.24
2018-09-22T20:37:12.980Z,11.11
2018-09-22T20:39:53.349Z,11.12
2018-09-22T20:42:25.349Z,10.97
2018-09-22T20:45:10.131Z,11.08
2018-09-22T20:47:42.938Z,11.06
2018-09-22T20:50:11.494Z,11.18
2018-09-22T20:52:40.082Z,11.11
2018-09-22T20:55:09.901Z,11.27
2018-09-22T20:57:41.595Z,11.25
2018-09-22T21:00:10.965Z,11.23
2018-09-22T21:02:45.069Z,11.22
2018-09-22T21:05:24.866Z,11.24
2018-09-22T21:08:16.696Z,11.25
2018-09-22T21:10:59.490Z,11.24
2018-09-22T21:13:38.123Z,11.37
2018-09-22T21:16:21.989Z,11.29
2018-09-22T21:18:56.576Z,11.26
2018-09-22T21:24:09.652Z,11.25
2018-09-22T21:26:55.303Z,11.18
2018-09-22T21:29:31.166Z,11.23
2018-09-22T21:32:18.537Z,11.27
2018-09-22T21:40:29.501Z,11.26
2018-09-22T21:43:06.149Z,11.16
2018-09-22T21:46:11.192Z,10.97
2018-09-22T21:48:49.771Z,10.89
2018-09-22T21:54:08.643Z,10.87
2018-09-22T21:56:37.207Z,10.87
2018-09-22T21:59:05.793Z,10.97
2018-09-22T22:01:41.001Z,11.00
2018-09-22T22:07:27.122Z,10.90
2018-09-22T22:10:06.140Z,10.88
2018-09-22T22:12:51.648Z,10.78
2018-09-22T22:15:31.273Z,10.78
2018-09-22T22:21:07.971Z,10.77
2018-09-22T22:26:28.016Z,10.82
2018-09-22T22:31:46.359Z,10.89
2018-09-22T22:34:26.459Z,10.84
2018-09-22T22:37:19.674Z,10.75
2018-09-22T22:39:55.722Z,10.71
2018-09-22T22:45:14.891Z,10.82
2018-09-22T22:47:51.048Z,10.81
2018-09-22T22:55:48.231Z,10.79
2018-09-22T22:58:16.778Z,10.95
2018-09-22T23:00:45.373Z,10.77
2018-09-22T23:03:14.740Z,10.96
2018-09-22T23:05:43.354Z,10.92
2018-09-22T23:08:11.917Z,10.88
2018-09-22T23:10:40.500Z,10.99
2018-09-22T23:13:09.074Z,10.97
2018-09-22T23:15:37.675Z,10.95
2018-09-22T23:18:06.514Z,11.02
2018-09-22T23:20:35.100Z,11.01
2018-09-22T23:23:03.659Z,10.94
2018-09-22T23:25:32.236Z,10.82
2018-09-22T23:28:00.843Z,10.85
2018-09-22T23:30:29.453Z,10.89
2018-09-22T23:32:57.997Z,11.04
2018-09-22T23:35:26.578Z,10.88
2018-09-22T23:37:55.122Z,10.93
2018-09-22T23:40:23.857Z,10.70
2018-09-22T23:42:52.390Z,10.69
2018-09-22T23:45:20.948Z,10.75
2018-09-22T23:47:49.494Z,10.80
2018-09-22T23:50:18.138Z,10.74
2018-09-22T23:52:46.682Z,10.72
2018-09-22T23:55:15.233Z,10.73
2018-09-22T23:57:43.760Z,10.70
